»·PEaware :: N903MA KSBP-KSMX

N903MA :: KSBP-KSMX

FLIGHT INFORMATION

Flight Status: Arrived
Operator: Privately registered:
United States
More flights under this callsign
Pilot: Hyatt B. (30410)
Aircraft: CESSNA 172 SKYHAWK
(C172)
More flights by this aircraft type
Origin: KSBP San Luis Co Regl
United States
Destination: KSMX Santa Maria Pub/Capt Hancock
United States
More flights between these airports :: More routes between these airports
Route:
File this flight plan on PilotEdge
Remarks:
Altitude:
(Current/Filed)
5,000ft
Speed:
(Current/Filed)
110kts
Departed: 15-Jul-20 10:04 AM
Arrived: 15-Jul-20 10:22 AM
Distance/Time
Traveled:
22nm/0:18
Distance/Time
To Go:
Arrived

Flight Plot

Page will automatically refresh every two minutes.


Map Options




Map Legend


Flown Route
Filed Route
Departure Airport
Arrival Airport
Navaid (VOR, NDB)
Fix

Horizontal Profiles

Position Reports

Time Latitude Longitude Heading Altitude Ground
Speed
15-Jul-20 09:36 35.240237 -120.643346 123 215ft 0kts
15-Jul-20 09:37 35.240237 -120.643346 123 215ft 0kts
15-Jul-20 09:38 35.240237 -120.643346 123 215ft 0kts
15-Jul-20 09:39 35.240237 -120.643346 123 215ft 0kts
15-Jul-20 09:41 35.240237 -120.643346 123 215ft 0kts
15-Jul-20 09:42 35.240237 -120.643346 123 215ft 0kts
15-Jul-20 09:43 35.240237 -120.643346 123 215ft 0kts
15-Jul-20 09:44 35.240237 -120.643346 123 215ft 0kts
15-Jul-20 09:45 35.240237 -120.643346 123 215ft 0kts
15-Jul-20 09:46 35.240237 -120.643346 123 215ft 0kts
15-Jul-20 09:47 35.240237 -120.643346 123 215ft 0kts
15-Jul-20 09:48 35.240237 -120.643346 123 215ft 0kts
15-Jul-20 09:49 35.240237 -120.643346 123 215ft 0kts
15-Jul-20 09:50 35.240237 -120.643346 123 215ft 0kts
15-Jul-20 09:51 35.240237 -120.643346 123 215ft 0kts
15-Jul-20 09:52 35.240237 -120.643346 123 215ft 0kts
15-Jul-20 09:53 35.240237 -120.643346 123 215ft 0kts
15-Jul-20 09:54 35.240237 -120.643346 123 215ft 0kts
15-Jul-20 09:55 35.240237 -120.643346 123 215ft 0kts
15-Jul-20 09:56 35.239985 -120.643136 193 215ft 4kts
15-Jul-20 09:57 35.238680 -120.641671 125 215ft 10kts
15-Jul-20 09:58 35.237338 -120.639120 123 215ft 8kts
15-Jul-20 09:58 35.236265 -120.637213 124 215ft 7kts
15-Jul-20 09:59 35.234750 -120.634577 124 215ft 9kts
15-Jul-20 10:01 35.233287 -120.632311 183 215ft 2kts
15-Jul-20 10:01 35.233200 -120.632338 200 215ft 1kts
15-Jul-20 10:02 35.233702 -120.634627 304 215ft 9kts
15-Jul-20 10:03 35.245027 -120.655135 298 731ft 88kts
15-Jul-20 10:04 35.233989 -120.674478 153 1492ft 93kts
15-Jul-20 10:05 35.208899 -120.657419 148 1553ft 118kts
15-Jul-20 10:06 35.183322 -120.640590 150 1718ft 106kts
15-Jul-20 10:07 35.157976 -120.623692 154 1947ft 101kts
15-Jul-20 10:08 35.137921 -120.612416 158 2228ft 92kts
15-Jul-20 10:09 35.125116 -120.597102 119 2348ft 98kts
15-Jul-20 10:10 35.111505 -120.578379 138 2583ft 94kts
15-Jul-20 10:11 35.094385 -120.564453 148 2586ft 109kts
15-Jul-20 10:12 35.074683 -120.550597 150 2620ft 108kts
15-Jul-20 10:13 35.046546 -120.532239 152 2434ft 110kts
15-Jul-20 10:14 35.010897 -120.506422 145 2395ft 99kts
15-Jul-20 10:15 34.984304 -120.475962 138 2639ft 92kts
15-Jul-20 10:16 34.963091 -120.454376 142 2958ft 106kts
15-Jul-20 10:17 34.936551 -120.433986 145 2725ft 110kts
15-Jul-20 10:18 34.913674 -120.419870 156 2408ft 89kts
15-Jul-20 10:19 34.892540 -120.412854 204 1862ft 98kts
15-Jul-20 10:20 34.888349 -120.440644 316 533ft 101kts
15-Jul-20 10:21 34.900512 -120.455066 315 264ft 28kts
15-Jul-20 10:22 34.903241 -120.456944 43 264ft 3kts
15-Jul-20 10:23 34.903930 -120.456140 35 264ft 8kts
15-Jul-20 10:24 34.904283 -120.455840 42 264ft 0kts
15-Jul-20 10:25 34.904283 -120.455840 42 264ft 0kts
15-Jul-20 10:26 34.904283 -120.455840 42 264ft 0kts
15-Jul-20 10:27 34.904283 -120.455840 42 264ft 0kts
15-Jul-20 10:28 34.904283 -120.455840 42 264ft 0kts
15-Jul-20 10:29 34.904283 -120.455840 42 264ft 0kts
15-Jul-20 10:30 34.904283 -120.455840 42 264ft 0kts
15-Jul-20 10:31 34.904283 -120.455840 42 264ft 0kts
15-Jul-20 10:32 34.904283 -120.455840 42 264ft 0kts
15-Jul-20 10:33 34.904283 -120.455840 42 264ft 0kts
15-Jul-20 10:34 34.904283 -120.455840 42 264ft 0kts
15-Jul-20 10:35 34.904283 -120.455840 42 264ft 0kts

Navigation Log

Ident Type
Flight plan parsing failed, navigation log unavailable